This is the latest recevied weather packets stored in our database for station/object KCBM. If no packets are shown the sender has not sent any weather packets the latest 10 day(s).
| Time | Temp. | Humidity | Pressure | Rain* | Wind** | Luminosity | Snow |
|---|---|---|---|---|---|---|---|
| 1788598404 | 23.89° C | 94% | 1012.2 hPa | - | - | - | - |
| 1788597804 | 23.89° C | 94% | 1012.2 hPa | - | - | - | - |
| 1788597202 | 23.89° C | 94% | 1012.2 hPa | - | - | - | - |
| 1788596604 | 23.89° C | 94% | 1012.2 hPa | - | - | - | - |
| 1788596004 | 23.89° C | 94% | 1012.2 hPa | - | - | - | - |
| 1788595405 | 22.78° C | 94% | 1012.2 hPa | - | - | - | - |
| 1788594804 | 22.78° C | 94% | 1012.2 hPa | - | - | - | - |
| 1788594203 | 22.78° C | 94% | 1012.2 hPa | - | - | - | - |
| 1788593602 | 22.78° C | 94% | 1012.2 hPa | - | - | - | - |
| 1788593003 | 25° C | 88% | 1012.2 hPa | - | - | - | - |
| 1788592407 | 25° C | 88% | 1012.2 hPa | - | - | - | - |
| 1788591803 | 23.89° C | 94% | 1012.2 hPa | - | - | - | - |
| 1788591206 | 23.89° C | 94% | 1012.2 hPa | - | - | - | - |
| 1788590601 | 23.89° C | 94% | 1012.2 hPa | - | - | - | - |
| 1788590005 | 23.89° C | 94% | 1012.2 hPa | - | - | - | - |
| 1788589405 | 23.89° C | 94% | 1012.2 hPa | - | - | - | - |
| 1788588804 | 23.89° C | 94% | 1012.2 hPa | - | - | - | - |
| 1788587008 | 25° C | 88% | 1012.2 hPa | - | - | - | - |
| 1788585205 | 25° C | 88% | 1012.2 hPa | - | - | - | - |
| 1788565406 | 27.78° C | 74% | 1011.5 hPa | - | - | - | - |
| 1788560006 | 35.56° C | 41% | 1011.2 hPa | - | - | - | - |
| 1788559407 | 35.56° C | 41% | 1011.2 hPa | - | - | - | - |
| 1788558205 | 35.56° C | 41% | 1011.2 hPa | - | - | - | - |
| 1788556405 | 35.56° C | 41% | 1011.2 hPa | - | - | - | - |
| 1788553405 | 37.78° C | 37% | 1011.9 hPa | - | - | - | - |
* Rain since midnight (hover to see other rain measurements)
** Current wind speed in m/s (hover to see current wind gust speed)